Topeka, Kansas
Current Conditions -  °F | °C
As of 3:53 PM on Wednesday 28 Jan 2015 (Local Time) from KTOP Reporting Station
Clear Clear  
Wind Chill: 23°   Ceiling: Unl
Heat Index: 23°   Visibility: 10mi
Dew Point:   Wind: 22mph
Humidity: 28%   Direction: 240°WSW
Pressure: 29.7"   Gusts: 33mph
Location:  39.06°N, 95.68°W
Report Text: KTOP 282153Z 24019G29KT 10SM CLR 23/03 A2970 RMK AO2 PK WND 23029/2118 SLP056 T02280033
Loading
Personal Weather Stations






























Interactive Weather Map New forecast layout! Learn more

10-Day Weather Forecast

Advertisements
Track Severe Weather on mobile